LKTB/BRQ METAR and TAF weather

Enter ICAO airport designator
Station Type Date Time Source
LKTB METAR 2019/04/25 08:00 UTC NOAA

LKTB 250800Z 13008KT 090V160 CAVOK 18/11 Q1014 NOSIG


Station Type Date Time Source
LKTB Decoded METAR 2019/04/25 08:00 UTC NOAA

Brno / Turany, Czech Republic (LKTB) 49-09N 016-42E 246M
Apr 25, 2019 - 04:00 AM EDT / 2019.04.25 0800 UTC
Wind: from the SE (130 degrees) at 9 MPH (8 KT) (direction variable):0
Visibility: greater than 7 mile(s):0
Temperature: 64 F (18 C)
Dew Point: 51 F (11 C)
Relative Humidity: 63%
Pressure (altimeter): 29.94 in. Hg (1014 hPa)
ob: LKTB 250800Z 13008KT 090V160 CAVOK 18/11 Q1014 NOSIG
cycle: 8

Station Type Date Time Source
LKTB TAF 2019/04/25 06:09 UTC NOAA

TAF LKTB 250500Z 2506/2612 14008KT CAVOK

Example: see airport list